KCON/CON METAR and TAF weather

Enter ICAO airport designator
Station Type Date Time Source
KCON METAR 2019/02/20 07:51 UTC NOAA

KCON 200751Z AUTO 00000KT 10SM CLR M16/M19 A3054 RMK AO2 SLP350 T11561189


Station Type Date Time Source
KCON Decoded METAR 2019/02/20 07:51 UTC NOAA

Concord, Concord Municipal Airport, NH, United States (KCON) 43-11-43N 071-30-04W 103M
Feb 20, 2019 - 02:51 AM EST / 2019.02.20 0751 UTC
Wind: Calm:0
Visibility: 10 mile(s):0
Sky conditions: clear
Temperature: 3.9 F (-15.6 C)
Dew Point: -2.0 F (-18.9 C)
Relative Humidity: 75%
Pressure (altimeter): 30.54 in. Hg (1034 hPa)
ob: KCON 200751Z AUTO 00000KT 10SM CLR M16/M19 A3054 RMK AO2 SLP350 T11561189
cycle: 8

Station Type Date Time Source
KCON TAF 2019/02/20 06:24 UTC NOAA

TAF KCON 200522Z 2006/2106 VRB03KT P6SM SCT250
FM210200 VRB03KT P6SM OVC025 PROB30 2102/2106 2SM -SN BR OVC012


Example: see airport list